createdAt,value
2022-12-22T00:00:11.094Z,47.43
2022-12-22T00:02:56.712Z,47.67
2022-12-22T00:05:42.679Z,47.17
2022-12-22T00:08:27.692Z,45.83
2022-12-22T00:11:13.577Z,46.40
2022-12-22T00:13:59.501Z,45.90
2022-12-22T00:16:52.376Z,46.10
2022-12-22T00:19:37.810Z,45.03
2022-12-22T00:22:32.972Z,43.90
2022-12-22T00:25:18.433Z,45.47
2022-12-22T00:28:03.825Z,44.53
2022-12-22T00:30:49.032Z,44.70
2022-12-22T00:33:35.186Z,46.33
2022-12-22T00:36:22.049Z,44.43
2022-12-22T00:39:07.632Z,44.60
2022-12-22T00:41:53.086Z,45.80
2022-12-22T00:44:38.309Z,46.17
2022-12-22T00:47:23.506Z,44.33
2022-12-22T00:50:08.777Z,43.43
2022-12-22T00:52:54.081Z,42.07
2022-12-22T00:55:41.639Z,42.23
2022-12-22T00:58:33.534Z,41.10
2022-12-22T01:01:18.723Z,41.73
2022-12-22T01:04:06.954Z,42.23
2022-12-22T01:06:57.653Z,41.17
2022-12-22T01:09:42.997Z,41.10
2022-12-22T01:12:37.061Z,42.33
2022-12-22T01:15:35.556Z,42.70
2022-12-22T01:18:20.652Z,44.00
2022-12-22T01:21:05.931Z,42.47
2022-12-22T01:23:53.613Z,42.67
2022-12-22T01:26:39.325Z,43.73
2022-12-22T01:29:24.849Z,42.67
2022-12-22T01:32:10.557Z,42.63
2022-12-22T01:34:55.827Z,43.67
2022-12-22T01:37:40.968Z,43.53
2022-12-22T01:40:31.552Z,42.67
2022-12-22T01:43:16.893Z,43.53
2022-12-22T01:46:02.476Z,44.00
2022-12-22T01:48:51.092Z,43.37
2022-12-22T01:51:41.667Z,42.53
2022-12-22T01:54:27.742Z,43.13
2022-12-22T01:57:15.505Z,43.97
2022-12-22T02:00:01.150Z,43.07
2022-12-22T02:02:46.623Z,43.47
2022-12-22T02:05:33.105Z,40.17
2022-12-22T02:08:33.336Z,43.40
2022-12-22T02:11:26.165Z,42.43
2022-12-22T02:14:18.951Z,44.10
2022-12-22T02:17:17.727Z,43.83
2022-12-22T02:20:09.166Z,43.90
2022-12-22T02:23:06.357Z,41.03
2022-12-22T02:26:22.748Z,43.40
2022-12-22T02:29:09.986Z,41.87
2022-12-22T02:32:01.008Z,42.23
2022-12-22T02:34:46.310Z,40.43
2022-12-22T02:37:43.804Z,41.33
2022-12-22T02:40:48.421Z,40.53
2022-12-22T02:43:45.627Z,41.43
2022-12-22T02:46:45.275Z,41.77
2022-12-22T02:49:38.073Z,39.73
2022-12-22T02:52:32.318Z,41.67
2022-12-22T02:55:17.892Z,41.07
2022-12-22T02:58:03.200Z,41.73
2022-12-22T03:00:48.728Z,40.30
2022-12-22T03:03:36.826Z,40.20
2022-12-22T03:06:25.386Z,41.23
2022-12-22T03:09:12.993Z,38.37
2022-12-22T03:11:58.199Z,38.77
2022-12-22T03:14:43.654Z,39.43
2022-12-22T03:17:29.160Z,37.17
2022-12-22T03:20:16.651Z,38.80
2022-12-22T03:23:04.230Z,36.30
2022-12-22T03:25:49.739Z,38.50
2022-12-22T03:28:19.111Z,37.33
2022-12-22T03:30:45.916Z,38.27
2022-12-22T03:33:14.210Z,38.70
2022-12-22T03:35:43.094Z,39.87
2022-12-22T03:38:12.389Z,39.13
2022-12-22T03:40:39.142Z,38.00
2022-12-22T03:43:28.223Z,41.10
2022-12-22T03:46:29.830Z,39.17
2022-12-22T03:49:13.004Z,39.37
2022-12-22T03:51:44.621Z,37.83
2022-12-22T03:54:12.864Z,39.40
2022-12-22T03:56:42.155Z,38.50
2022-12-22T03:59:11.827Z,39.43
2022-12-22T04:01:45.986Z,38.90
2022-12-22T04:04:15.909Z,38.70
2022-12-22T04:06:45.896Z,38.90
2022-12-22T04:09:12.667Z,38.03
2022-12-22T04:11:58.080Z,35.23
2022-12-22T04:14:33.450Z,38.43
2022-12-22T04:17:04.165Z,37.70
2022-12-22T04:19:31.307Z,38.03
2022-12-22T04:21:58.256Z,37.77
2022-12-22T04:24:25.113Z,37.20
2022-12-22T04:26:52.656Z,39.10
2022-12-22T04:29:19.450Z,38.60
2022-12-22T04:31:46.299Z,36.67
2022-12-22T04:34:13.286Z,35.87
2022-12-22T04:36:42.622Z,37.67
2022-12-22T04:39:09.402Z,37.33
2022-12-22T04:41:36.167Z,36.97
2022-12-22T04:44:03.034Z,36.60
2022-12-22T04:46:33.500Z,35.23
2022-12-22T04:49:02.578Z,36.63
2022-12-22T04:51:29.415Z,34.57
2022-12-22T04:53:56.324Z,35.77
2022-12-22T04:56:25.249Z,35.93
2022-12-22T04:58:52.026Z,34.77
2022-12-22T05:01:21.506Z,35.27
2022-12-22T05:03:48.481Z,35.20
2022-12-22T05:06:15.402Z,36.30
2022-12-22T05:08:42.294Z,34.73
2022-12-22T05:11:09.109Z,34.57
2022-12-22T05:13:38.347Z,35.77
2022-12-22T05:16:09.504Z,35.10
2022-12-22T05:18:36.531Z,36.10
2022-12-22T05:21:04.870Z,35.83
2022-12-22T05:23:31.711Z,35.07
2022-12-22T05:26:00.935Z,35.07
2022-12-22T05:28:27.745Z,34.17
2022-12-22T05:30:56.755Z,33.63
2022-12-22T05:33:26.054Z,34.63
2022-12-22T05:35:52.870Z,34.60
2022-12-22T05:38:19.625Z,36.20
2022-12-22T05:40:48.862Z,33.73
2022-12-22T05:43:16.907Z,36.30
2022-12-22T05:45:46.715Z,36.07
2022-12-22T05:48:13.618Z,36.17
2022-12-22T05:50:42.586Z,36.30
2022-12-22T05:53:11.731Z,34.93
2022-12-22T05:55:40.631Z,33.87
2022-12-22T05:58:07.402Z,33.23
2022-12-22T06:00:36.386Z,33.73
2022-12-22T06:03:03.268Z,33.87
2022-12-22T06:05:30.243Z,33.27
2022-12-22T06:07:57.009Z,34.17
2022-12-22T06:10:23.850Z,33.47
2022-12-22T06:12:50.610Z,32.97
2022-12-22T06:15:17.436Z,33.23
2022-12-22T06:17:45.269Z,32.10
2022-12-22T06:20:13.038Z,31.87
2022-12-22T06:22:39.800Z,32.37
2022-12-22T06:25:17.533Z,32.50
2022-12-22T06:27:47.589Z,31.70
2022-12-22T06:30:15.591Z,31.13
2022-12-22T06:32:42.443Z,32.70
2022-12-22T06:35:10.146Z,33.50
2022-12-22T06:37:40.078Z,32.00
2022-12-22T06:40:07.938Z,33.57
2022-12-22T06:43:03.983Z,33.70
2022-12-22T06:45:42.496Z,32.67
2022-12-22T06:48:12.379Z,33.60
2022-12-22T06:50:41.829Z,31.57
2022-12-22T06:53:12.096Z,32.97
2022-12-22T06:55:39.009Z,32.83
2022-12-22T06:58:08.468Z,32.77
2022-12-22T07:00:35.316Z,31.60
2022-12-22T07:03:04.700Z,33.47
2022-12-22T07:05:32.009Z,31.63
2022-12-22T07:08:07.644Z,31.50
2022-12-22T07:10:53.450Z,31.30
2022-12-22T07:13:20.675Z,30.07
2022-12-22T07:15:55.669Z,31.87
2022-12-22T07:18:29.211Z,31.47
2022-12-22T07:20:56.019Z,30.60
2022-12-22T07:23:25.404Z,30.60
2022-12-22T07:25:52.350Z,32.00
2022-12-22T07:28:21.227Z,31.60
2022-12-22T07:30:50.837Z,30.73
2022-12-22T07:33:17.728Z,30.60
2022-12-22T07:35:46.862Z,29.60
2022-12-22T07:38:13.825Z,29.43
2022-12-22T07:40:44.958Z,31.90
2022-12-22T07:43:16.091Z,29.60
2022-12-22T07:45:42.845Z,28.93
2022-12-22T07:48:29.539Z,28.17
2022-12-22T07:50:57.276Z,29.33
2022-12-22T07:53:24.091Z,29.73
2022-12-22T07:55:50.854Z,29.47
2022-12-22T07:58:19.979Z,28.33
2022-12-22T08:00:46.789Z,28.90
2022-12-22T08:03:15.796Z,27.53
2022-12-22T08:05:45.970Z,30.30
2022-12-22T08:08:12.727Z,28.40
2022-12-22T08:10:41.682Z,28.57
2022-12-22T08:13:10.617Z,27.43
2022-12-22T08:15:38.197Z,28.20
2022-12-22T08:18:08.370Z,27.27
2022-12-22T08:20:35.277Z,27.30
2022-12-22T08:23:02.033Z,27.37
2022-12-22T08:25:29.306Z,26.67
2022-12-22T08:27:58.179Z,25.93
2022-12-22T08:30:27.092Z,25.33
2022-12-22T08:32:53.949Z,25.63
2022-12-22T08:35:20.907Z,25.90
2022-12-22T08:37:47.649Z,25.83
2022-12-22T08:40:21.592Z,25.40
2022-12-22T08:42:50.519Z,25.10
2022-12-22T08:45:19.630Z,26.57
2022-12-22T08:47:48.281Z,25.83
2022-12-22T08:50:15.263Z,25.87
2022-12-22T08:52:42.177Z,27.10
2022-12-22T08:55:09.325Z,25.77
2022-12-22T08:57:40.731Z,26.80
2022-12-22T09:00:08.715Z,26.67
2022-12-22T09:02:35.943Z,25.90
2022-12-22T09:05:07.495Z,27.13
2022-12-22T09:07:36.573Z,27.50
2022-12-22T09:10:05.772Z,27.20
2022-12-22T09:12:35.011Z,27.43
2022-12-22T09:15:04.231Z,28.90
2022-12-22T09:17:30.986Z,28.50
2022-12-22T09:20:00.144Z,28.50
2022-12-22T09:22:27.980Z,27.87
2022-12-22T09:24:55.969Z,27.70
2022-12-22T09:27:25.188Z,26.97
2022-12-22T09:29:51.976Z,27.07
2022-12-22T09:32:18.847Z,27.13
2022-12-22T09:34:45.697Z,26.40
2022-12-22T09:37:19.515Z,25.87
2022-12-22T09:39:51.598Z,26.20
2022-12-22T09:42:19.505Z,27.63
2022-12-22T09:44:47.579Z,26.23
2022-12-22T09:47:17.511Z,26.07
2022-12-22T09:49:44.286Z,26.40
2022-12-22T09:52:24.119Z,26.90
2022-12-22T09:54:53.029Z,25.17
2022-12-22T09:57:24.859Z,25.00
2022-12-22T09:59:51.705Z,24.80
2022-12-22T10:02:24.589Z,25.53
2022-12-22T10:05:20.794Z,24.27
2022-12-22T10:07:49.713Z,24.97
2022-12-22T10:10:27.946Z,25.93
2022-12-22T10:12:56.352Z,26.23
2022-12-22T10:15:23.335Z,26.47
2022-12-22T10:17:54.226Z,26.70
2022-12-22T10:20:31.259Z,26.53
2022-12-22T10:23:02.245Z,27.20
2022-12-22T10:25:45.324Z,27.90
2022-12-22T10:28:21.134Z,28.77
2022-12-22T10:30:48.117Z,29.17
2022-12-22T10:33:16.545Z,28.07
2022-12-22T10:35:49.291Z,28.63
2022-12-22T10:38:36.782Z,30.50
2022-12-22T10:41:09.117Z,30.03
2022-12-22T10:43:47.610Z,30.13
2022-12-22T10:46:16.603Z,29.87
2022-12-22T10:48:45.947Z,30.50
2022-12-22T10:51:13.393Z,29.53
2022-12-22T10:53:48.065Z,29.83
2022-12-22T10:56:33.401Z,28.50
2022-12-22T10:59:03.993Z,29.70
2022-12-22T11:01:35.340Z,29.90
2022-12-22T11:04:27.171Z,29.37
2022-12-22T11:06:54.888Z,29.73
2022-12-22T11:09:33.644Z,29.23
2022-12-22T11:12:26.191Z,27.90
2022-12-22T11:15:01.801Z,28.70
2022-12-22T11:17:50.776Z,28.67
2022-12-22T11:20:46.729Z,28.53
2022-12-22T11:23:25.559Z,30.97
2022-12-22T11:26:22.112Z,29.80
2022-12-22T11:29:03.254Z,29.00
2022-12-22T11:32:07.110Z,29.47
2022-12-22T11:34:47.569Z,29.60
2022-12-22T11:37:40.207Z,30.20
2022-12-22T11:40:19.236Z,29.10
2022-12-22T11:43:25.159Z,30.50
2022-12-22T11:46:00.806Z,28.33
2022-12-22T11:48:45.049Z,28.87
2022-12-22T11:51:27.489Z,29.87
2022-12-22T11:54:19.012Z,29.33
2022-12-22T11:56:47.613Z,30.57
2022-12-22T11:59:27.860Z,28.13
2022-12-22T12:02:00.853Z,28.40
2022-12-22T12:04:55.208Z,29.30
2022-12-22T12:07:38.104Z,29.67
2022-12-22T12:10:22.938Z,29.33
2022-12-22T12:13:08.674Z,28.07
2022-12-22T12:15:38.429Z,28.50
2022-12-22T12:18:23.793Z,28.83
2022-12-22T12:21:02.570Z,29.13
2022-12-22T12:23:53.769Z,29.23
2022-12-22T12:26:28.587Z,28.93
2022-12-22T12:29:16.183Z,28.00
2022-12-22T12:32:07.654Z,28.33
2022-12-22T12:34:37.620Z,27.77
2022-12-22T12:37:29.936Z,25.67
2022-12-22T12:39:59.543Z,24.43
2022-12-22T12:42:35.322Z,23.60
2022-12-22T12:45:02.600Z,23.90
2022-12-22T12:47:32.058Z,23.80
2022-12-22T12:50:25.605Z,25.07
2022-12-22T12:52:52.345Z,25.53
2022-12-22T12:55:31.582Z,24.10
2022-12-22T12:57:59.391Z,25.47
2022-12-22T13:00:34.732Z,24.63
2022-12-22T13:03:04.502Z,25.53
2022-12-22T13:05:53.501Z,25.33
2022-12-22T13:08:27.745Z,25.07
2022-12-22T13:10:59.824Z,25.23
2022-12-22T13:13:26.597Z,24.43
2022-12-22T13:16:02.178Z,24.47
2022-12-22T13:18:37.139Z,23.87
2022-12-22T13:24:25.352Z,24.77
2022-12-22T13:26:55.814Z,26.03
2022-12-22T13:29:22.924Z,24.73
2022-12-22T13:32:27.751Z,24.03
2022-12-22T13:35:31.461Z,25.30
2022-12-22T13:37:59.192Z,25.13
2022-12-22T13:40:32.112Z,24.33
2022-12-22T13:43:03.127Z,26.13
2022-12-22T13:45:39.974Z,27.37
2022-12-22T13:48:16.938Z,25.93
2022-12-22T13:50:57.037Z,25.77
2022-12-22T13:54:08.491Z,27.07
2022-12-22T13:56:40.064Z,27.47
2022-12-22T13:59:32.670Z,27.40
2022-12-22T14:02:01.212Z,26.77
2022-12-22T14:04:31.087Z,26.17
2022-12-22T14:07:20.443Z,26.77
2022-12-22T14:09:58.197Z,26.87
2022-12-22T14:12:26.583Z,26.37
2022-12-22T14:14:56.355Z,27.30
2022-12-22T14:17:30.214Z,27.03
2022-12-22T14:19:58.227Z,27.93
2022-12-22T14:22:34.476Z,26.73
2022-12-22T14:25:09.363Z,26.10
2022-12-22T14:27:38.396Z,26.17
2022-12-22T14:30:17.929Z,25.50
2022-12-22T14:32:52.365Z,25.83
2022-12-22T14:35:21.380Z,26.33
2022-12-22T14:37:50.895Z,26.20
2022-12-22T14:40:34.053Z,26.20
2022-12-22T14:43:05.194Z,26.07
2022-12-22T14:45:32.009Z,30.43
2022-12-22T14:48:01.170Z,27.57
2022-12-22T14:50:28.697Z,26.13
2022-12-22T14:52:59.311Z,25.77
2022-12-22T14:55:39.556Z,25.77
2022-12-22T14:58:15.473Z,26.13
2022-12-22T15:00:52.092Z,24.60
2022-12-22T15:03:35.362Z,24.23
2022-12-22T15:06:24.630Z,23.57
2022-12-22T15:08:53.431Z,25.07
2022-12-22T15:11:23.505Z,23.27
2022-12-22T15:13:54.998Z,24.20
2022-12-22T15:16:22.010Z,24.90
2022-12-22T15:18:49.593Z,24.40
2022-12-22T15:21:19.355Z,23.03
2022-12-22T15:23:50.823Z,24.13
2022-12-22T15:26:17.630Z,25.33
2022-12-22T15:28:44.407Z,25.00
2022-12-22T15:31:15.408Z,25.30
2022-12-22T15:33:47.395Z,25.30
2022-12-22T15:36:14.367Z,25.17
2022-12-22T15:38:41.321Z,25.60
2022-12-22T15:41:10.216Z,24.47
2022-12-22T15:43:57.856Z,24.87
2022-12-22T15:46:25.646Z,24.53
2022-12-22T15:48:52.577Z,23.87
2022-12-22T15:51:29.215Z,25.30
2022-12-22T15:53:58.742Z,25.13
2022-12-22T15:56:30.779Z,25.07
2022-12-22T15:59:00.126Z,25.73
2022-12-22T16:01:27.031Z,24.53
2022-12-22T16:03:55.247Z,25.73
2022-12-22T16:06:22.139Z,24.13
2022-12-22T16:08:56.176Z,25.77
2022-12-22T16:11:23.079Z,25.97
2022-12-22T16:13:50.127Z,25.97
2022-12-22T16:16:19.249Z,25.50
2022-12-22T16:18:46.188Z,25.50
2022-12-22T16:21:17.510Z,26.87
2022-12-22T16:23:47.865Z,26.87
2022-12-22T16:26:19.242Z,26.80
2022-12-22T16:28:46.620Z,28.43
2022-12-22T16:31:21.195Z,27.87
2022-12-22T16:33:48.215Z,26.90
2022-12-22T16:36:15.015Z,26.93
2022-12-22T16:38:41.822Z,27.20
2022-12-22T16:41:20.470Z,28.60
2022-12-22T16:43:50.330Z,27.73
2022-12-22T16:46:18.789Z,27.13
2022-12-22T16:48:48.526Z,26.67
2022-12-22T16:51:23.360Z,27.20
2022-12-22T16:53:52.625Z,29.60
2022-12-22T16:56:27.638Z,28.60
2022-12-22T16:58:54.568Z,27.53
2022-12-22T17:01:24.524Z,29.20
2022-12-22T17:03:51.378Z,27.63
2022-12-22T17:06:18.427Z,28.10
2022-12-22T17:08:47.351Z,28.07
2022-12-22T17:11:25.798Z,29.87
2022-12-22T17:13:53.058Z,28.53
2022-12-22T17:16:21.541Z,28.73
2022-12-22T17:18:49.523Z,29.43
2022-12-22T17:21:17.498Z,28.90
2022-12-22T17:23:48.652Z,29.17
2022-12-22T17:26:17.620Z,29.60
2022-12-22T17:28:49.111Z,30.40
2022-12-22T17:31:23.552Z,31.20
2022-12-22T17:33:50.596Z,29.77
2022-12-22T17:36:36.194Z,33.33
2022-12-22T17:39:03.173Z,31.20
2022-12-22T17:41:30.070Z,30.83
2022-12-22T17:43:56.836Z,30.57
2022-12-22T17:46:28.413Z,29.37
2022-12-22T17:48:57.656Z,28.47
2022-12-22T17:51:28.513Z,30.90
2022-12-22T17:53:59.058Z,30.43
2022-12-22T17:56:26.551Z,30.40
2022-12-22T17:58:56.438Z,29.43
2022-12-22T18:01:28.480Z,30.53
2022-12-22T18:03:57.951Z,30.37
2022-12-22T18:06:27.783Z,29.43
2022-12-22T18:08:54.891Z,29.57
2022-12-22T18:11:22.083Z,29.03
2022-12-22T18:13:51.481Z,30.17
2022-12-22T18:16:19.061Z,32.33
2022-12-22T18:18:48.928Z,30.77
2022-12-22T18:21:25.121Z,28.87
2022-12-22T18:23:54.515Z,32.30
2022-12-22T18:26:24.916Z,28.90
2022-12-22T18:29:01.927Z,31.70
2022-12-22T18:31:28.779Z,30.50
2022-12-22T18:33:56.031Z,28.87
2022-12-22T18:36:25.641Z,30.47
2022-12-22T18:38:55.379Z,29.87
2022-12-22T18:41:25.709Z,30.00
2022-12-22T18:43:55.643Z,28.67
2022-12-22T18:46:23.278Z,29.60
2022-12-22T18:48:50.135Z,29.97
2022-12-22T18:51:21.429Z,29.30
2022-12-22T18:53:51.611Z,29.20
2022-12-22T18:56:18.441Z,30.50
2022-12-22T18:58:47.750Z,28.87
2022-12-22T19:01:29.817Z,29.07
2022-12-22T19:03:56.676Z,28.10
2022-12-22T19:06:25.628Z,28.73
2022-12-22T19:08:52.478Z,29.63
2022-12-22T19:11:22.127Z,29.90
2022-12-22T19:13:49.611Z,28.87
2022-12-22T19:16:18.070Z,27.83
2022-12-22T19:18:45.063Z,27.30
2022-12-22T19:21:15.698Z,26.83
2022-12-22T19:23:42.540Z,27.00
2022-12-22T19:26:28.489Z,25.73
2022-12-22T19:28:57.243Z,26.33
2022-12-22T19:31:33.860Z,26.10
2022-12-22T19:34:02.900Z,25.80
2022-12-22T19:36:30.221Z,24.67
2022-12-22T19:39:19.009Z,24.60
2022-12-22T19:41:46.356Z,23.97
2022-12-22T19:44:26.176Z,24.17
2022-12-22T19:46:53.590Z,25.73
2022-12-22T19:49:24.565Z,22.93
2022-12-22T19:51:51.544Z,23.67
2022-12-22T19:54:19.713Z,24.23
2022-12-22T19:56:50.916Z,25.43
2022-12-22T19:59:35.698Z,23.83
2022-12-22T20:02:21.443Z,23.03
2022-12-22T20:04:49.006Z,79.47
2022-12-22T20:07:19.357Z,26.63
2022-12-22T20:09:46.164Z,24.33
2022-12-22T20:12:37.862Z,24.60
2022-12-22T20:15:26.529Z,22.67
2022-12-22T20:17:54.089Z,24.27
2022-12-22T20:20:22.898Z,24.27
2022-12-22T20:22:54.295Z,23.43
2022-12-22T20:25:23.129Z,22.93
2022-12-22T20:27:50.234Z,23.77
2022-12-22T20:30:21.765Z,24.17
2022-12-22T20:32:54.465Z,22.47
2022-12-22T20:35:26.567Z,23.97
2022-12-22T20:38:00.798Z,23.20
2022-12-22T20:40:29.616Z,23.30
2022-12-22T20:43:02.458Z,23.03
2022-12-22T20:45:30.170Z,23.80
2022-12-22T20:47:57.975Z,24.03
2022-12-22T20:50:28.409Z,22.47
2022-12-22T20:52:55.660Z,22.63
2022-12-22T20:55:26.572Z,23.73
2022-12-22T20:57:53.378Z,23.23
2022-12-22T21:00:30.061Z,23.10
2022-12-22T21:02:59.474Z,22.50
2022-12-22T21:05:28.660Z,22.90
2022-12-22T21:07:55.455Z,22.93
2022-12-22T21:10:31.350Z,20.80
2022-12-22T21:12:58.132Z,23.30
2022-12-22T21:15:28.366Z,21.57
2022-12-22T21:17:58.657Z,23.07
2022-12-22T21:20:27.536Z,22.97
2022-12-22T21:22:54.572Z,23.77
2022-12-22T21:25:21.855Z,22.63
2022-12-22T21:27:49.250Z,22.07
2022-12-22T21:30:31.725Z,22.67
2022-12-22T21:33:01.175Z,23.27
2022-12-22T21:35:33.601Z,23.03
2022-12-22T21:38:02.655Z,21.33
2022-12-22T21:40:37.181Z,22.47
2022-12-22T21:43:03.999Z,21.60
2022-12-22T21:45:35.827Z,22.30
2022-12-22T21:48:15.376Z,22.53
2022-12-22T21:50:42.394Z,20.37
2022-12-22T21:53:19.767Z,21.90
2022-12-22T21:55:49.086Z,22.90
2022-12-22T21:58:16.084Z,22.20
2022-12-22T22:00:45.248Z,22.80
2022-12-22T22:03:15.836Z,23.07
2022-12-22T22:05:44.932Z,22.63
2022-12-22T22:08:14.195Z,24.50
2022-12-22T22:10:42.279Z,24.07
2022-12-22T22:13:13.751Z,24.87
2022-12-22T22:15:40.593Z,25.80
2022-12-22T22:18:07.892Z,26.17
2022-12-22T22:20:35.111Z,26.10
2022-12-22T22:23:01.954Z,25.50
2022-12-22T22:25:28.823Z,25.47
2022-12-22T22:27:59.114Z,26.50
2022-12-22T22:30:28.342Z,26.37
2022-12-22T22:32:55.511Z,27.53
2022-12-22T22:35:23.081Z,27.17
2022-12-22T22:37:52.489Z,27.50
2022-12-22T22:40:23.395Z,27.63
2022-12-22T22:42:50.160Z,27.67
2022-12-22T22:45:23.140Z,28.77
2022-12-22T22:47:53.270Z,28.83
2022-12-22T22:50:21.019Z,28.93
2022-12-22T22:52:48.600Z,29.27
2022-12-22T22:55:17.852Z,29.33
2022-12-22T22:57:46.992Z,28.70
2022-12-22T23:00:15.438Z,26.80
2022-12-22T23:02:43.472Z,28.20
2022-12-22T23:05:18.773Z,27.37
2022-12-22T23:07:51.610Z,38.43
2022-12-22T23:10:18.420Z,28.77
2022-12-22T23:12:47.403Z,28.10
2022-12-22T23:15:14.624Z,27.37
2022-12-22T23:17:43.751Z,27.93
2022-12-22T23:20:10.775Z,28.17
2022-12-22T23:22:37.557Z,27.03
2022-12-22T23:25:04.659Z,29.67
2022-12-22T23:27:31.883Z,26.70
2022-12-22T23:29:58.660Z,28.70
2022-12-22T23:32:25.502Z,28.10
2022-12-22T23:34:52.347Z,28.47
2022-12-22T23:37:21.594Z,29.33
2022-12-22T23:39:48.461Z,29.30
2022-12-22T23:42:15.234Z,27.70
2022-12-22T23:44:42.022Z,29.47
2022-12-22T23:47:08.970Z,29.60
2022-12-22T23:49:36.253Z,29.63
2022-12-22T23:52:05.555Z,29.07
2022-12-22T23:54:32.350Z,29.03
2022-12-22T23:56:59.170Z,27.80
2022-12-22T23:59:25.945Z,28.57
